SAS44A EKCH-EKYT
Flight info
| Callsign | SAS44A |
|---|---|
| Flight time | 0h 27m |
| Altitude | 22000 |
| Route | GOLGA T506 LAPMA L621 AAL |
| Aircraft | A320/M-SDE3FGHIRWY/LB1 |
Departure
| Time | 2026-04-25 20:32 |
|---|---|
| Airport | Copenhagen Kastrup Airport (EKCH) |
Arrival
| Time | 2026-04-25 20:59 |
|---|---|
| Airport | Aalborg Airport (EKYT) |
| Time | Latitude | Longitude | Altitude | Speed | Heading |
|---|---|---|---|---|---|
| 2026-04-25 19:56 | 55.62740 | 12.65179 | 27 ft | 0 kts | 356° |
| 2026-04-25 20:19 | 55.62734 | 12.65180 | 28 ft | 2 kts | 356° |
| 2026-04-25 20:19 | 55.62714 | 12.65182 | 28 ft | 3 kts | 356° |
| 2026-04-25 20:20 | 55.62694 | 12.65185 | 25 ft | 3 kts | 356° |
| 2026-04-25 20:20 | 55.62674 | 12.65187 | 24 ft | 3 kts | 358° |
| 2026-04-25 20:20 | 55.62656 | 12.65187 | 24 ft | 2 kts | 360° |
| 2026-04-25 20:20 | 55.62653 | 12.65187 | 28 ft | 0 kts | 359° |
| 2026-04-25 20:22 | 55.62656 | 12.65187 | 28 ft | 3 kts | 360° |
| 2026-04-25 20:22 | 55.62665 | 12.65232 | 24 ft | 6 kts | 96° |
| 2026-04-25 20:23 | 55.62641 | 12.65306 | 24 ft | 8 kts | 142° |
| 2026-04-25 20:23 | 55.62580 | 12.65322 | 24 ft | 10 kts | 177° |
| 2026-04-25 20:23 | 55.62502 | 12.65327 | 24 ft | 13 kts | 178° |
| 2026-04-25 20:23 | 55.62404 | 12.65332 | 24 ft | 15 kts | 178° |
| 2026-04-25 20:24 | 55.62319 | 12.65333 | 24 ft | 12 kts | 180° |
| 2026-04-25 20:24 | 55.62291 | 12.65249 | 24 ft | 10 kts | 258° |
| 2026-04-25 20:24 | 55.62230 | 12.65192 | 24 ft | 13 kts | 195° |
| 2026-04-25 20:24 | 55.62140 | 12.65098 | 24 ft | 17 kts | 213° |
| 2026-04-25 20:25 | 55.62034 | 12.64978 | 26 ft | 19 kts | 213° |
| 2026-04-25 20:25 | 55.61912 | 12.64839 | 24 ft | 22 kts | 212° |
| 2026-04-25 20:25 | 55.61776 | 12.64682 | 25 ft | 24 kts | 213° |
| 2026-04-25 20:25 | 55.61619 | 12.64500 | 24 ft | 30 kts | 213° |
| 2026-04-25 20:26 | 55.61441 | 12.64294 | 25 ft | 32 kts | 213° |
| 2026-04-25 20:26 | 55.61279 | 12.64109 | 24 ft | 26 kts | 213° |
| 2026-04-25 20:26 | 55.61121 | 12.63928 | 24 ft | 24 kts | 213° |
| 2026-04-25 20:26 | 55.60984 | 12.63772 | 25 ft | 25 kts | 213° |
| 2026-04-25 20:27 | 55.60856 | 12.63625 | 24 ft | 19 kts | 213° |
| 2026-04-25 20:27 | 55.60761 | 12.63653 | 24 ft | 10 kts | 131° |
| 2026-04-25 20:27 | 55.60737 | 12.63702 | 24 ft | 0 kts | 131° |
| 2026-04-25 20:30 | 55.60728 | 12.63720 | 24 ft | 4 kts | 131° |
| 2026-04-25 20:31 | 55.60693 | 12.63798 | 26 ft | 12 kts | 117° |
| 2026-04-25 20:31 | 55.60725 | 12.63942 | 27 ft | 23 kts | 41° |
| 2026-04-25 20:31 | 55.61023 | 12.64400 | 24 ft | 92 kts | 41° |
| 2026-04-25 20:31 | 55.61654 | 12.65379 | 22 ft | 146 kts | 41° |
| 2026-04-25 20:32 | 55.62491 | 12.66669 | 352 ft | 163 kts | 41° |
| 2026-04-25 20:32 | 55.63353 | 12.68010 | 964 ft | 165 kts | 41° |
| 2026-04-25 20:32 | 55.64213 | 12.69350 | 1640 ft | 164 kts | 41° |
| 2026-04-25 20:32 | 55.65098 | 12.70675 | 2091 ft | 177 kts | 32° |
| 2026-04-25 20:33 | 55.66340 | 12.71074 | 2376 ft | 197 kts | 346° |
| 2026-04-25 20:33 | 55.67733 | 12.70305 | 2688 ft | 222 kts | 342° |
| 2026-04-25 20:33 | 55.69336 | 12.69727 | 3124 ft | 247 kts | 353° |
| 2026-04-25 20:33 | 55.70502 | 12.69546 | 3529 ft | 258 kts | 356° |
| 2026-04-25 20:34 | 55.72894 | 12.68980 | 4684 ft | 266 kts | 338° |
| 2026-04-25 20:34 | 55.74453 | 12.67215 | 5579 ft | 269 kts | 317° |
| 2026-04-25 20:34 | 55.75841 | 12.64964 | 6502 ft | 272 kts | 317° |
| 2026-04-25 20:34 | 55.77245 | 12.62666 | 7392 ft | 275 kts | 317° |
| 2026-04-25 20:35 | 55.78665 | 12.60337 | 8255 ft | 279 kts | 317° |
| 2026-04-25 20:35 | 55.80106 | 12.57977 | 9093 ft | 283 kts | 317° |
| 2026-04-25 20:35 | 55.81567 | 12.55591 | 9907 ft | 286 kts | 317° |
| 2026-04-25 20:35 | 55.83048 | 12.53173 | 10409 ft | 303 kts | 317° |
| 2026-04-25 20:36 | 55.84664 | 12.50534 | 10639 ft | 326 kts | 317° |
| 2026-04-25 20:36 | 55.86379 | 12.47727 | 11063 ft | 340 kts | 317° |
| 2026-04-25 20:36 | 55.88132 | 12.44851 | 11720 ft | 345 kts | 317° |
| 2026-04-25 20:36 | 55.89908 | 12.41932 | 12412 ft | 349 kts | 317° |
| 2026-04-25 20:37 | 55.91678 | 12.39024 | 13088 ft | 352 kts | 317° |
| 2026-04-25 20:37 | 55.93490 | 12.36039 | 13771 ft | 356 kts | 317° |
| 2026-04-25 20:37 | 55.95322 | 12.33025 | 14440 ft | 359 kts | 317° |
| 2026-04-25 20:37 | 55.97169 | 12.29977 | 15080 ft | 362 kts | 317° |
| 2026-04-25 20:38 | 55.99037 | 12.26888 | 15698 ft | 366 kts | 317° |
| 2026-04-25 20:38 | 56.00890 | 12.23819 | 16294 ft | 369 kts | 317° |
| 2026-04-25 20:38 | 56.02783 | 12.20681 | 16891 ft | 372 kts | 317° |
| 2026-04-25 20:38 | 56.04695 | 12.17510 | 17483 ft | 376 kts | 317° |
| 2026-04-25 20:39 | 56.06626 | 12.14306 | 18077 ft | 379 kts | 317° |
| 2026-04-25 20:39 | 56.08572 | 12.11073 | 18671 ft | 382 kts | 317° |
| 2026-04-25 20:39 | 56.10533 | 12.07810 | 19270 ft | 386 kts | 317° |
| 2026-04-25 20:39 | 56.11845 | 12.05623 | 19663 ft | 388 kts | 317° |
| 2026-04-25 20:40 | 56.14486 | 12.01216 | 20443 ft | 393 kts | 317° |
| 2026-04-25 20:40 | 56.16489 | 11.97867 | 20994 ft | 396 kts | 316° |
| 2026-04-25 20:40 | 56.18514 | 11.94474 | 21526 ft | 399 kts | 316° |
| 2026-04-25 20:40 | 56.20553 | 11.91053 | 21903 ft | 402 kts | 316° |
| 2026-04-25 20:41 | 56.22606 | 11.87601 | 21999 ft | 408 kts | 316° |
| 2026-04-25 20:41 | 56.24709 | 11.84057 | 22010 ft | 417 kts | 316° |
| 2026-04-25 20:41 | 56.26803 | 11.80521 | 22010 ft | 419 kts | 316° |
| 2026-04-25 20:41 | 56.28940 | 11.76907 | 22009 ft | 420 kts | 316° |
| 2026-04-25 20:42 | 56.31070 | 11.73301 | 22009 ft | 420 kts | 316° |
| 2026-04-25 20:42 | 56.33243 | 11.69757 | 22007 ft | 420 kts | 321° |
| 2026-04-25 20:42 | 56.35650 | 11.66729 | 22010 ft | 420 kts | 327° |
| 2026-04-25 20:42 | 56.38106 | 11.63846 | 22009 ft | 420 kts | 327° |
| 2026-04-25 20:43 | 56.40531 | 11.60997 | 22009 ft | 420 kts | 327° |
| 2026-04-25 20:43 | 56.42980 | 11.58115 | 22009 ft | 420 kts | 327° |
| 2026-04-25 20:43 | 56.45364 | 11.55080 | 21943 ft | 417 kts | 319° |
| 2026-04-25 20:43 | 56.47407 | 11.51357 | 21313 ft | 413 kts | 313° |
| 2026-04-25 20:44 | 56.49331 | 11.47548 | 20821 ft | 407 kts | 311° |
| 2026-04-25 20:44 | 56.51215 | 11.43744 | 20311 ft | 403 kts | 311° |
| 2026-04-25 20:44 | 56.53048 | 11.40016 | 19807 ft | 399 kts | 311° |
| 2026-04-25 20:44 | 56.54891 | 11.36269 | 19281 ft | 397 kts | 311° |
| 2026-04-25 20:45 | 56.56723 | 11.32552 | 18752 ft | 394 kts | 311° |
| 2026-04-25 20:45 | 56.58551 | 11.28850 | 18209 ft | 392 kts | 311° |
| 2026-04-25 20:45 | 56.60367 | 11.25176 | 17651 ft | 389 kts | 311° |
| 2026-04-25 20:45 | 56.62173 | 11.21519 | 17101 ft | 386 kts | 311° |
| 2026-04-25 20:46 | 56.63944 | 11.17940 | 16548 ft | 384 kts | 311° |
| 2026-04-25 20:46 | 56.65722 | 11.14341 | 15990 ft | 381 kts | 311° |
| 2026-04-25 20:46 | 56.67484 | 11.10771 | 15438 ft | 377 kts | 311° |
| 2026-04-25 20:46 | 56.69222 | 11.07244 | 14884 ft | 373 kts | 311° |
| 2026-04-25 20:47 | 56.70948 | 11.03731 | 14333 ft | 369 kts | 311° |
| 2026-04-25 20:47 | 56.72648 | 11.00254 | 13789 ft | 365 kts | 311° |
| 2026-04-25 20:47 | 56.74332 | 10.96803 | 13248 ft | 362 kts | 311° |
| 2026-04-25 20:47 | 56.75982 | 10.93425 | 12792 ft | 355 kts | 311° |
| 2026-04-25 20:48 | 56.77609 | 10.90096 | 12182 ft | 355 kts | 311° |
| 2026-04-25 20:48 | 56.79247 | 10.86746 | 11644 ft | 351 kts | 311° |
| 2026-04-25 20:48 | 56.80864 | 10.83428 | 11117 ft | 348 kts | 311° |
| 2026-04-25 20:48 | 56.82468 | 10.80131 | 10598 ft | 344 kts | 311° |
| 2026-04-25 20:49 | 56.84030 | 10.76910 | 10432 ft | 331 kts | 311° |
| 2026-04-25 20:49 | 56.85520 | 10.73830 | 10291 ft | 318 kts | 311° |
| 2026-04-25 20:49 | 56.86946 | 10.70881 | 10169 ft | 306 kts | 311° |
| 2026-04-25 20:49 | 56.88336 | 10.68006 | 10039 ft | 296 kts | 311° |
| 2026-04-25 20:50 | 56.89686 | 10.65209 | 9798 ft | 290 kts | 311° |
| 2026-04-25 20:50 | 56.91023 | 10.62431 | 9396 ft | 290 kts | 311° |
| 2026-04-25 20:50 | 56.92353 | 10.59670 | 9044 ft | 285 kts | 311° |
| 2026-04-25 20:50 | 56.93649 | 10.56976 | 8388 ft | 284 kts | 311° |
| 2026-04-25 20:51 | 56.94952 | 10.54267 | 7747 ft | 282 kts | 311° |
| 2026-04-25 20:51 | 56.96240 | 10.51577 | 7173 ft | 278 kts | 311° |
| 2026-04-25 20:51 | 56.97503 | 10.48944 | 6635 ft | 274 kts | 311° |
| 2026-04-25 20:51 | 56.98756 | 10.46329 | 6122 ft | 271 kts | 311° |
| 2026-04-25 20:52 | 56.99997 | 10.43735 | 5554 ft | 269 kts | 311° |
| 2026-04-25 20:52 | 57.00814 | 10.42027 | 5182 ft | 267 kts | 311° |
| 2026-04-25 20:52 | 57.02442 | 10.38615 | 4602 ft | 265 kts | 311° |
| 2026-04-25 20:52 | 57.03639 | 10.36103 | 4232 ft | 264 kts | 311° |
| 2026-04-25 20:53 | 57.04827 | 10.33610 | 3879 ft | 253 kts | 311° |
| 2026-04-25 20:53 | 57.05929 | 10.31294 | 3878 ft | 228 kts | 310° |
| 2026-04-25 20:53 | 57.06957 | 10.29129 | 3824 ft | 223 kts | 310° |
| 2026-04-25 20:53 | 57.07954 | 10.27033 | 3669 ft | 213 kts | 311° |
| 2026-04-25 20:54 | 57.08910 | 10.25023 | 3582 ft | 210 kts | 310° |
| 2026-04-25 20:54 | 57.09844 | 10.23053 | 3560 ft | 202 kts | 310° |
| 2026-04-25 20:54 | 57.10763 | 10.21084 | 3485 ft | 202 kts | 306° |
| 2026-04-25 20:54 | 57.11367 | 10.18810 | 3301 ft | 198 kts | 284° |
| 2026-04-25 20:55 | 57.11445 | 10.16300 | 3044 ft | 196 kts | 263° |
| 2026-04-25 20:55 | 57.11290 | 10.13832 | 2792 ft | 192 kts | 263° |
| 2026-04-25 20:55 | 57.11141 | 10.11422 | 2529 ft | 185 kts | 263° |
| 2026-04-25 20:55 | 57.11000 | 10.09141 | 2309 ft | 178 kts | 263° |
| 2026-04-25 20:56 | 57.10861 | 10.06902 | 2075 ft | 175 kts | 263° |
| 2026-04-25 20:56 | 57.10724 | 10.04708 | 1842 ft | 166 kts | 263° |
| 2026-04-25 20:56 | 57.10601 | 10.02746 | 1638 ft | 145 kts | 263° |
| 2026-04-25 20:56 | 57.10488 | 10.00936 | 1453 ft | 141 kts | 263° |
| 2026-04-25 20:57 | 57.10375 | 9.99141 | 1252 ft | 141 kts | 263° |
| 2026-04-25 20:57 | 57.10263 | 9.97353 | 1074 ft | 140 kts | 263° |
| 2026-04-25 20:57 | 57.10151 | 9.95571 | 898 ft | 140 kts | 263° |
| 2026-04-25 20:57 | 57.10039 | 9.93791 | 722 ft | 140 kts | 263° |
| 2026-04-25 20:58 | 57.09928 | 9.92033 | 513 ft | 139 kts | 263° |
| 2026-04-25 20:58 | 57.09812 | 9.90256 | 354 ft | 139 kts | 263° |
| 2026-04-25 20:58 | 57.09701 | 9.88475 | 155 ft | 139 kts | 263° |
| 2026-04-25 20:58 | 57.09594 | 9.86768 | 19 ft | 122 kts | 263° |
| 2026-04-25 20:59 | 57.09515 | 9.85540 | 20 ft | 72 kts | 263° |
| 2026-04-25 20:59 | 57.09471 | 9.84882 | 21 ft | 43 kts | 263° |
| 2026-04-25 20:59 | 57.09444 | 9.84472 | 19 ft | 24 kts | 263° |
| 2026-04-25 20:59 | 57.09417 | 9.84280 | 19 ft | 9 kts | 191° |
| 2026-04-25 21:00 | 57.09378 | 9.84322 | 19 ft | 11 kts | 140° |
| 2026-04-25 21:00 | 57.09337 | 9.84383 | 19 ft | 12 kts | 140° |
| 2026-04-25 21:00 | 57.09264 | 9.84644 | 19 ft | 22 kts | 83° |
| 2026-04-25 21:01 | 57.09285 | 9.84941 | 19 ft | 24 kts | 83° |
| 2026-04-25 21:01 | 57.09309 | 9.85259 | 19 ft | 26 kts | 81° |
| 2026-04-25 21:01 | 57.09327 | 9.85588 | 19 ft | 26 kts | 84° |
| 2026-04-25 21:01 | 57.09341 | 9.85834 | 19 ft | 13 kts | 84° |
| 2026-04-25 21:02 | 57.09290 | 9.85961 | 19 ft | 15 kts | 142° |
| 2026-04-25 21:02 | 57.09207 | 9.86082 | 19 ft | 16 kts | 141° |
| 2026-04-25 21:02 | 57.09115 | 9.86209 | 19 ft | 17 kts | 143° |
| 2026-04-25 21:02 | 57.09017 | 9.86346 | 19 ft | 18 kts | 141° |
| 2026-04-25 21:03 | 57.08913 | 9.86495 | 19 ft | 19 kts | 142° |
| 2026-04-25 21:03 | 57.08803 | 9.86653 | 19 ft | 21 kts | 142° |
| 2026-04-25 21:03 | 57.08709 | 9.86792 | 19 ft | 14 kts | 140° |
| 2026-04-25 21:03 | 57.08647 | 9.86899 | 19 ft | 8 kts | 135° |
| 2026-04-25 21:04 | 57.08653 | 9.86951 | 19 ft | 5 kts | 58° |
| 2026-04-25 21:04 | 57.08669 | 9.86993 | 19 ft | 2 kts | 55° |
| 2026-04-25 21:04 | 57.08675 | 9.87010 | 20 ft | 1 kts | 55° |
| 2026-04-25 21:04 | 57.08677 | 9.87014 | 20 ft | 0 kts | 55° |